Las Vegas Municipal Airport
KLVS : rendu visible

Aérodrome :











RETROUVEZ-NOUS SUR...

 
LOGIN :

S'inscrire | Disclaimer

   EN    FR    IT 

 









Légende :    VFR   VFR Marginal   IFR   IFR Intensif   IFR Très Intensif
Visi : 
Plafond : 
>= 8 km
>= 3000ft
5 à 8 km
1000 à 3000 ft
1500m à 5 km
500 à 1000 ft
800 à 1500m
200 à 500 ft
< 800m
< 200 ft
Symboles :   Orages  Brouillard  Fortes neiges  Fortes précipitations  Vent > 20 kt






- Altitude de l'aérodrome : 6877 ft


KLVS - Las Vegas Municipal

DERNIER METAR :
  • 211653Z AUTO 17014KT 6SM BR OVC002 03/02 A2997 RMK AO2 RAB35E45 SLP116 P0000 T00280022

METARs EXPIRÉS :
  • 211553Z AUTO 16016KT 8SM OVC002 03/02 A2998 RMK AO2 RAB08E17B27E36 SLP121 P0000 T00280022
  • 211528Z AUTO 17011KT 3SM -RA BR OVC002 03/03 A2998 RMK AO2 RAB08E17B27 P0000 T00330028
  • 211517Z AUTO 17016KT 1 3/4SM BR OVC002 03/03 A2999 RMK AO2 VIS 3/4V4 RAB08E17 P0000 T00330028
  • 211453Z AUTO 16016G22KT 9SM OVC002 03/03 A2998 RMK AO2 RAE07 SLP114 P0000 60003 T00330028 51002
  • 211446Z AUTO 16013KT 3SM BR OVC002 03/03 A2997 RMK AO2 RAE07 P0000 T00330028
  • 211420Z AUTO 14013KT 1/4SM FG VV002 03/03 A2997 RMK AO2 RAE07 P0000 T00330028
  • 211412Z AUTO 15015KT 1/2SM FG VV003 03/03 A2997 RMK AO2 RAE07 P0000 T00330028

TAF KLVS
Valide du 21 à 16h jusqu'au 22 à 12h UTC


211626Z 2116/2212 17013KT 5SM -RA BR SCT003 OVC008
TEMPO 2116/2119 1/2SM -RASN FG OVC002
FM211900 14008KT 1SM -SN BR OVC007
FM220800 19006KT 3SM BR VCSH OVC004
TEMPO 2208/2211 1/2SM FZFG OVC001



MET'MAP, la Météo Aéronautique d'un coup d'oeil ! - Copyright ORBIFLY Décembre 2007 - Disclaimer

ORBIFLY MET'MAP TEAM :

Programmation & Développement : Alexandra Zaïnal
Conception & Développement : Baudouin d'Aumeries
Co-Programmation & Développement : Marc-Olivier Méhu
Soutien technique & logistique : Manuel Goepfert

Contact : metmap@orbifly.com




SOURCES & CREDITS :

   NOAA       Earth
Advisory